Time;durP1;ratioP1;P1;durP2;ratioP2;P2;SDS_P1;SDS_P2;PMS_P1;PMS_P2;Temp;Humidity;BMP_temperature;BMP_pressure;BME280_temperature;BME280_humidity;BME280_pressure;Samples;Min_cycle;Max_cycle;Signal;HPM_P1;HPM_P2
2021/12/29 00:02:21;;;;;;;30.60;15.77;;;;;;;7.05;100.00;99874.13;6252762;22;20004;-91
2021/12/29 00:04:54;;;;;;;32.03;15.30;;;;;;;7.00;100.00;99864.00;6253704;22;20057;-93
2021/12/29 00:07:21;;;;;;;28.63;15.35;;;;;;;7.03;100.00;99865.44;6253280;22;20319;-93
2021/12/29 00:09:49;;;;;;;33.10;15.75;;;;;;;7.01;100.00;99862.09;6253930;22;20014;-93
2021/12/29 00:12:25;;;;;;;30.95;16.23;;;;;;;7.01;100.00;99870.19;6254372;22;20386;-93
2021/12/29 00:14:53;;;;;;;31.52;16.23;;;;;;;7.00;100.00;99885.56;6254356;22;20330;-93
2021/12/29 00:17:24;;;;;;;30.45;15.40;;;;;;;7.49;100.00;99976.84;6253624;22;20382;-93
2021/12/29 00:19:55;;;;;;;28.05;14.50;;;;;;;7.00;100.00;99907.13;6204726;22;20011;-93
2021/12/29 00:22:21;;;;;;;27.63;14.82;;;;;;;7.64;100.00;100020.56;6253565;22;20035;-93
2021/12/29 00:24:51;;;;;;;26.95;14.32;;;;;;;6.87;100.00;99911.78;6203553;22;20397;-93
2021/12/29 00:27:24;;;;;;;26.65;14.65;;;;;;;7.02;100.00;99934.72;6253331;22;20334;-93
2021/12/29 00:29:51;;;;;;;27.30;14.73;;;;;;;6.93;100.00;99916.31;6227883;22;20007;-94
2021/12/29 00:32:20;;;;;;;25.45;14.57;;;;;;;7.38;100.00;99984.56;6253738;22;20038;-94
2021/12/29 00:34:50;;;;;;;29.33;16.98;;;;;;;7.01;100.00;99921.44;6228577;22;20015;-94
2021/12/29 00:37:19;;;;;;;28.27;16.60;;;;;;;7.57;100.00;100013.53;6253750;22;20018;-92
2021/12/29 00:39:46;;;;;;;27.35;16.17;;;;;;;6.84;100.00;99904.94;6253224;22;20007;-93
2021/12/29 00:42:17;;;;;;;33.55;17.90;;;;;;;6.99;100.00;99940.53;6227151;22;20443;-93
2021/12/29 00:44:44;;;;;;;29.88;17.73;;;;;;;7.01;100.00;99951.97;6253542;22;20065;-92
2021/12/29 00:47:14;;;;;;;37.28;18.00;;;;;;;7.19;100.00;100002.50;6228030;22;20008;-92
2021/12/29 00:49:41;;;;;;;33.05;18.88;;;;;;;7.37;100.00;100018.00;6253709;22;20010;-93
2021/12/29 00:52:12;;;;;;;29.88;17.63;;;;;;;7.62;100.00;100078.50;6228439;22;20011;-93
2021/12/29 00:54:40;;;;;;;33.63;18.92;;;;;;;7.60;100.00;100084.13;6253203;22;20014;-93
2021/12/29 00:57:09;;;;;;;37.72;20.08;;;;;;;7.01;100.00;99978.09;6253887;22;20008;-93
2021/12/29 00:59:45;;;;;;;34.17;18.30;;;;;;;7.16;100.00;100002.94;6253374;22;20012;-93
2021/12/29 01:02:12;;;;;;;36.55;20.98;;;;;;;7.36;100.00;100048.72;6208134;22;20366;-93
2021/12/29 01:04:39;;;;;;;37.17;20.02;;;;;;;7.35;100.00;100047.06;6253635;22;20012;-93
2021/12/29 01:07:06;;;;;;;37.58;21.90;;;;;;;6.91;100.00;99978.56;6251149;22;20442;-93
2021/12/29 01:09:36;;;;;;;37.75;21.60;;;;;;;6.91;100.00;99992.03;6252090;22;20014;-93
2021/12/29 01:12:14;;;;;;;39.03;21.23;;;;;;;7.41;100.00;100077.78;6252506;22;20027;-93
2021/12/29 01:14:44;;;;;;;36.03;21.27;;;;;;;7.35;100.00;100068.66;6252047;22;20105;-93
2021/12/29 01:17:11;;;;;;;39.50;22.17;;;;;;;6.92;100.00;100023.34;6252007;22;20350;-94
2021/12/29 01:19:47;;;;;;;40.72;22.05;;;;;;;6.90;100.00;100014.63;6227745;22;20018;-93
2021/12/29 01:22:27;;;;;;;39.00;22.08;;;;;;;7.31;100.00;100080.09;6256578;22;20007;-93
2021/12/29 01:24:57;;;;;;;35.83;20.60;;;;;;;6.92;100.00;100020.63;6274169;22;20008;-94
2021/12/29 01:27:47;;;;;;;36.88;20.95;;;;;;;6.88;100.00;100018.59;6258877;22;20304;-94
2021/12/29 01:30:25;;;;;;;35.45;21.17;;;;;;;7.35;100.00;100105.59;6253195;22;20014;-94
2021/12/29 01:32:52;;;;;;;34.33;20.52;;;;;;;6.91;100.00;100039.72;6252679;22;20004;-94
2021/12/29 01:35:34;;;;;;;32.35;20.55;;;;;;;6.94;100.00;100050.09;6251733;22;20475;-94
2021/12/29 01:38:14;;;;;;;34.03;20.60;;;;;;;7.32;100.00;100136.56;6251506;22;20000;-95
2021/12/29 01:40:49;;;;;;;36.95;21.15;;;;;;;6.91;100.00;100072.09;6251238;22;20003;-94
2021/12/29 01:43:19;;;;;;;41.20;20.98;;;;;;;7.34;100.00;100152.53;6251717;22;20495;-94
2021/12/29 01:45:47;;;;;;;33.33;20.63;;;;;;;6.91;100.00;100093.66;6251841;22;20343;-95
2021/12/29 01:48:18;;;;;;;38.42;21.30;;;;;;;7.32;100.00;100150.06;6251693;22;20008;-94
2021/12/29 01:50:51;;;;;;;34.85;21.08;;;;;;;7.32;100.00;100152.75;6252209;22;20014;-94
2021/12/29 01:53:29;;;;;;;37.13;20.92;;;;;;;7.30;100.00;100145.91;6251631;22;20324;-94
2021/12/29 01:55:57;;;;;;;34.00;20.20;;;;;;;6.93;100.00;100105.91;6251839;22;20018;-93
2021/12/29 01:58:30;;;;;;;38.85;21.25;;;;;;;7.37;100.00;100179.91;6252332;22;20000;-93
2021/12/29 02:00:59;;;;;;;37.42;19.92;;;;;;;7.33;100.00;100165.19;6252446;22;20108;-93
2021/12/29 02:03:29;;;;;;;33.83;19.25;;;;;;;7.33;100.00;100175.97;6227092;22;20343;-93
2021/12/29 02:05:57;;;;;;;37.15;20.30;;;;;;;7.30;100.00;100175.59;6252023;22;20019;-93
2021/12/29 02:08:26;;;;;;;41.65;20.50;;;;;;;7.30;100.00;100184.50;6251676;22;20004;-92
2021/12/29 02:10:57;;;;;;;32.30;19.95;;;;;;;7.52;100.00;100217.47;6226832;22;20046;-92
2021/12/29 02:13:24;;;;;;;33.42;20.42;;;;;;;7.45;100.00;100210.44;6226562;22;20010;-92
2021/12/29 02:15:51;;;;;;;39.58;21.48;;;;;;;7.17;100.00;100169.16;6201648;22;20069;-92
2021/12/29 02:18:20;;;;;;;36.42;22.13;;;;;;;6.94;100.00;100133.69;6226392;22;20035;-92
2021/12/29 02:20:50;;;;;;;41.67;22.30;;;;;;;6.88;100.00;100129.13;6251352;22;20003;-92
2021/12/29 02:23:34;;;;;;;44.05;22.27;;;;;;;6.88;100.00;100137.22;6251755;22;20012;-92
2021/12/29 02:26:07;;;;;;;43.22;22.88;;;;;;;7.20;100.00;100178.69;6227863;22;20016;-92
2021/12/29 02:28:35;;;;;;;38.90;21.05;;;;;;;7.43;100.00;100220.63;6250891;22;20064;-92
2021/12/29 02:31:11;;;;;;;40.17;23.23;;;;;;;7.24;100.00;100196.13;6251459;22;20008;-93
2021/12/29 02:33:49;;;;;;;43.42;23.80;;;;;;;6.88;100.00;100145.31;6251153;22;20497;-94
2021/12/29 02:36:20;;;;;;;39.17;23.23;;;;;;;6.88;100.00;100137.22;6226542;22;20490;-94
2021/12/29 02:38:55;;;;;;;42.45;24.50;;;;;;;6.85;100.00;100142.00;6252079;22;20031;-94
2021/12/29 02:41:35;;;;;;;42.03;22.83;;;;;;;6.78;100.00;100143.06;6252120;22;20431;-93
2021/12/29 02:44:15;;;;;;;43.33;22.65;;;;;;;6.83;100.00;100143.25;6253036;22;20014;-93
2021/12/29 02:46:44;;;;;;;41.38;22.88;;;;;;;6.85;100.00;100155.50;6251974;22;20003;-94
2021/12/29 02:49:17;;;;;;;41.53;22.42;;;;;;;6.84;100.00;100142.22;6251480;22;20401;-94
2021/12/29 02:51:47;;;;;;;39.85;22.90;;;;;;;7.41;100.00;100241.56;6251997;22;20039;-93
2021/12/29 02:54:16;;;;;;;36.92;21.30;;;;;;;7.19;100.00;100207.56;6226896;22;20320;-94
2021/12/29 02:56:49;;;;;;;37.70;22.17;;;;;;;6.83;100.00;100138.69;6252154;22;20319;-94
2021/12/29 02:59:26;;;;;;;39.72;22.08;;;;;;;6.75;100.00;100154.25;6252590;22;20069;-94
2021/12/29 03:02:10;;;;;;;40.50;23.48;;;;;;;6.78;100.00;100159.25;6228296;22;20011;-93
2021/12/29 03:04:42;;;;;;;39.83;22.27;;;;;;;6.74;100.00;100166.91;6252355;22;20011;-93
2021/12/29 03:07:20;;;;;;;39.63;22.50;;;;;;;6.67;100.00;100158.81;6250769;22;20015;-93
2021/12/29 03:09:57;;;;;;;45.05;23.70;;;;;;;6.80;100.00;100182.25;6228601;22;20342;-94
2021/12/29 03:12:24;;;;;;;39.78;22.85;;;;;;;6.72;100.00;100174.38;6204944;22;20402;-93
2021/12/29 03:14:57;;;;;;;45.50;23.88;;;;;;;6.78;100.00;100192.41;6252725;22;20348;-94
2021/12/29 03:17:27;;;;;;;42.15;23.38;;;;;;;6.78;100.00;100197.00;6228878;22;20038;-94
2021/12/29 03:19:55;;;;;;;43.75;23.83;;;;;;;6.75;100.00;100197.41;6253375;22;20011;-94
2021/12/29 03:22:23;;;;;;;46.80;24.17;;;;;;;7.36;100.00;100297.00;6264982;22;20003;-93
2021/12/29 03:25:04;;;;;;;;;;;;;;;;;;;;;
2021/12/29 03:27:37;;;;;;;48.80;24.38;;;;;;;6.76;100.00;100209.81;6282621;22;20402;-93
2021/12/29 03:30:13;;;;;;;40.83;23.80;;;;;;;6.78;100.00;100224.78;6266134;22;20003;-92
2021/12/29 03:33:02;;;;;;;44.50;23.73;;;;;;;6.76;100.00;100216.06;6250807;22;20007;-93
2021/12/29 03:35:51;;;;;;;40.30;22.25;;;;;;;6.96;100.00;100261.91;6276492;22;20008;-92
2021/12/29 03:38:25;;;;;;;43.90;22.77;;;;;;;6.76;100.00;100220.63;6276230;22;19983;-93
2021/12/29 03:40:59;;;;;;;41.75;21.83;;;;;;;6.69;100.00;100217.94;6276716;22;20043;-93
2021/12/29 03:43:32;;;;;;;42.08;22.95;;;;;;;6.73;100.00;100234.50;6277200;22;20030;-93
2021/12/29 03:46:04;;;;;;;39.13;21.70;;;;;;;6.72;100.00;100231.00;6276401;22;20034;-92
2021/12/29 03:48:32;;;;;;;43.05;21.92;;;;;;;7.09;100.00;100295.34;6276001;22;20003;-91
2021/12/29 03:51:00;;;;;;;41.22;21.63;;;;;;;6.72;100.00;100236.38;6275138;22;20010;-94
2021/12/29 03:53:33;;;;;;;41.92;21.92;;;;;;;6.76;100.00;100243.03;6276000;22;20035;-92
2021/12/29 03:56:01;;;;;;;41.42;23.38;;;;;;;6.71;100.00;100241.97;6273553;22;20014;-92
2021/12/29 03:58:35;;;;;;;40.42;22.30;;;;;;;6.71;100.00;100260.84;6262996;22;20010;-93
2021/12/29 04:01:10;;;;;;;43.42;22.58;;;;;;;7.09;100.00;100323.16;6274722;22;20011;-92
2021/12/29 04:03:42;;;;;;;46.20;23.05;;;;;;;6.73;100.00;100256.94;6276211;22;20030;-94
2021/12/29 04:06:08;;;;;;;;;;;;;;;7.30;100.00;100351.00;6249056;22;20014;-93
2021/12/29 04:08:38;;;;;;;43.15;22.92;;;;;;;6.71;100.00;100250.06;6274679;22;19914;-93
2021/12/29 04:11:12;;;;;;;48.60;23.35;;;;;;;7.10;100.00;100324.81;6242467;22;20338;-93
2021/12/29 04:13:47;;;;;;;44.53;22.77;;;;;;;7.09;100.00;100312.38;6261131;22;20014;-92
2021/12/29 04:16:17;;;;;;;41.53;22.55;;;;;;;6.63;100.00;100243.84;6261949;22;20038;-93
2021/12/29 04:21:38;;;;;;;39.20;21.98;;;;;;;7.04;100.00;100317.53;6265259;22;20023;-92
2021/12/29 04:24:08;;;;;;;41.33;22.35;;;;;;;6.74;100.00;100273.91;6255970;22;20010;-93
2021/12/29 04:26:38;;;;;;;39.70;22.63;;;;;;;6.97;100.00;100316.72;6227635;22;20008;-93
2021/12/29 04:29:10;;;;;;;41.92;21.85;;;;;;;6.73;100.00;100278.50;6227950;22;20014;-93
2021/12/29 04:31:39;;;;;;;43.17;22.17;;;;;;;7.01;100.00;100318.78;6266107;22;20026;-93
2021/12/29 04:34:08;;;;;;;41.92;22.00;;;;;;;7.09;100.00;100349.31;6252324;22;20015;-93
2021/12/29 04:36:37;;;;;;;39.53;22.45;;;;;;;6.70;100.00;100300.44;6251363;22;20004;-93
2021/12/29 04:39:08;;;;;;;41.70;22.10;;;;;;;6.68;100.00;100289.88;6229511;22;20086;-93
2021/12/29 04:41:35;;;;;;;39.40;22.20;;;;;;;6.72;100.00;100306.47;6252283;22;20077;-93
2021/12/29 04:44:01;;;;;;;41.50;22.35;;;;;;;7.04;100.00;100358.00;6252696;22;20064;-92
2021/12/29 04:46:38;;;;;;;38.00;21.83;;;;;;;6.68;100.00;100313.31;6252972;22;20010;-92
2021/12/29 04:49:09;;;;;;;36.47;21.65;;;;;;;6.92;100.00;100349.66;6253467;22;20008;-93
2021/12/29 04:51:44;;;;;;;38.20;21.05;;;;;;;7.07;100.00;100375.63;6253134;22;20397;-93
2021/12/29 04:54:13;;;;;;;39.15;21.67;;;;;;;6.99;100.00;100369.41;6252847;22;20086;-92
2021/12/29 04:56:43;;;;;;;37.50;21.92;;;;;;;6.68;100.00;100327.59;6253078;22;20008;-93
2021/12/29 04:59:09;;;;;;;42.22;20.95;;;;;;;7.27;100.00;100416.16;6252731;22;20011;-92
2021/12/29 05:01:35;;;;;;;37.28;20.92;;;;;;;7.03;100.00;100400.31;6227212;22;20086;-92
2021/12/29 05:04:01;;;;;;;38.45;21.23;;;;;;;7.26;100.00;100425.28;6251982;22;20011;-92
2021/12/29 05:09:15;;;;;;;35.08;20.83;;;;;;;6.77;100.00;100355.22;6279137;22;20019;-93
2021/12/29 05:11:46;;;;;;;36.97;21.10;;;;;;;7.00;100.00;100383.72;6252274;22;20339;-93
2021/12/29 05:14:17;;;;;;;39.25;21.30;;;;;;;7.05;100.00;100392.03;6227083;22;20011;-92
2021/12/29 05:16:46;;;;;;;44.80;21.13;;;;;;;6.87;100.00;100357.53;6227659;22;20046;-92
2021/12/29 05:19:14;;;;;;;34.72;20.23;;;;;;;7.19;100.00;100420.72;6202631;22;20387;-92
2021/12/29 05:21:43;;;;;;;34.90;20.88;;;;;;;6.62;100.00;100322.22;6227081;22;20011;-93
2021/12/29 05:24:15;;;;;;;40.25;20.98;;;;;;;6.52;100.00;100319.06;6252263;22;20034;-94
2021/12/29 05:26:41;;;;;;;;;;;;;;;7.15;100.00;100426.72;6252972;22;20003;-93
2021/12/29 05:29:08;;;;;;;44.13;20.50;;;;;;;6.91;100.00;100391.16;6226448;22;19911;-93
2021/12/29 05:31:42;;;;;;;42.13;21.35;;;;;;;6.92;100.00;100392.00;6252574;22;20011;-93
2021/12/29 05:34:13;;;;;;;43.00;21.95;;;;;;;6.56;100.00;100344.59;6252072;22;20008;-94
2021/12/29 05:36:48;;;;;;;38.47;21.20;;;;;;;6.53;100.00;100345.81;6227190;22;20015;-94
2021/12/29 05:39:20;;;;;;;41.40;21.05;;;;;;;6.52;100.00;100352.22;6252217;22;20547;-93
2021/12/29 05:41:46;;;;;;;36.88;19.75;;;;;;;6.52;100.00;100352.22;6252559;22;20397;-93
2021/12/29 05:44:16;;;;;;;40.25;20.30;;;;;;;6.68;100.00;100380.72;6252180;22;20008;-93
2021/12/29 05:46:45;;;;;;;39.72;20.25;;;;;;;6.89;100.00;100411.28;6227922;22;20011;-93
2021/12/29 05:49:11;;;;;;;38.47;21.10;;;;;;;6.85;100.00;100414.38;6251994;22;20003;-92
2021/12/29 05:51:37;;;;;;;41.58;20.45;;;;;;;6.79;100.00;100404.41;6226432;22;20359;-93
2021/12/29 05:54:07;;;;;;;40.47;20.15;;;;;;;6.47;100.00;100352.84;6252087;22;20095;-91
2021/12/29 05:56:37;;;;;;;41.17;19.60;;;;;;;6.56;100.00;100363.47;6251766;22;20082;-93
2021/12/29 05:59:06;;;;;;;39.60;19.20;;;;;;;6.46;100.00;100364.63;6251934;22;20381;-92
2021/12/29 06:01:36;;;;;;;39.55;20.10;;;;;;;6.64;100.00;100391.06;6225983;22;20007;-92
2021/12/29 06:04:10;;;;;;;39.42;19.38;;;;;;;7.03;100.00;100446.19;6251612;22;20445;-93
2021/12/29 06:13:33;;;;;;;33.50;19.33;;;;;;;6.56;100.00;100391.22;6278153;22;20538;-89
2021/12/29 06:15:59;;;;;;;39.50;19.15;;;;;;;6.81;100.00;100428.47;6250085;22;20320;-88
2021/12/29 06:18:27;;;;;;;35.30;18.58;;;;;;;7.05;100.00;100467.56;6249385;22;20011;-88
2021/12/29 06:20:55;;;;;;;32.47;18.70;;;;;;;6.91;100.00;100450.50;6200212;22;20056;-89
2021/12/29 06:23:21;;;;;;;36.15;18.42;;;;;;;6.84;100.00;100446.94;6249085;22;20004;-89
2021/12/29 06:25:47;;;;;;;38.03;18.45;;;;;;;6.88;100.00;100450.91;6249304;22;20018;-89
2021/12/29 06:28:12;;;;;;;37.40;18.25;;;;;;;7.02;100.00;100474.19;6249029;22;20019;-89
2021/12/29 06:30:48;;;;;;;32.90;17.27;;;;;;;7.10;100.00;100483.16;6198880;22;20046;-91
2021/12/29 06:46:41;;;;;;;36.63;16.73;;;;;;;6.45;100.00;100408.81;6155699;23;20026;-93
2021/12/29 06:49:12;;;;;;;36.38;16.70;;;;;;;6.63;100.00;100442.50;6129878;23;20014;-91
2021/12/29 06:52:18;;;;;;;30.58;16.95;;;;;;;7.05;100.00;100512.59;6130809;23;20013;-95
2021/12/29 07:22:57;;;;;;;29.80;15.93;;;;;;;6.47;100.00;100436.38;6131708;23;20061;-94
2021/12/29 07:32:17;;;;;;;29.05;15.45;;;;;;;6.76;100.00;100498.34;5981868;24;20014;-94
2021/12/29 07:35:00;;;;;;;28.33;15.73;;;;;;;6.46;100.00;100461.66;6014370;23;20011;-94
2021/12/29 07:38:08;;;;;;;27.25;15.75;;;;;;;7.02;100.00;100559.69;6184153;23;20009;-96
2021/12/29 07:48:33;;;;;;;28.40;15.27;;;;;;;6.85;100.00;100534.91;6135742;23;20076;-94
2021/12/29 08:26:22;;;;;;;26.13;14.60;;;;;;;6.52;100.00;100475.38;5859424;24;20013;-95
2021/12/29 08:29:16;;;;;;;23.33;14.55;;;;;;;7.08;100.00;100568.84;5824191;24;20063;-96
2021/12/29 08:35:22;;;;;;;23.40;14.98;;;;;;;7.10;100.00;100578.41;5900904;24;20021;-95
2021/12/29 08:37:59;;;;;;;26.30;14.65;;;;;;;6.54;100.00;100487.66;5965420;23;20007;-96
2021/12/29 08:40:33;;;;;;;25.52;15.35;;;;;;;6.78;100.00;100512.47;6068038;23;20070;-95
2021/12/29 08:43:17;;;;;;;28.92;15.60;;;;;;;6.56;100.00;100482.88;6137962;23;20432;-95
2021/12/29 08:45:59;;;;;;;24.92;15.73;;;;;;;6.56;100.00;100479.38;6187652;23;20004;-94
2021/12/29 08:48:37;;;;;;;25.27;15.95;;;;;;;6.95;100.00;100531.84;6230615;22;20026;-92
2021/12/29 08:51:08;;;;;;;25.02;16.23;;;;;;;6.58;100.00;100474.59;6221267;23;20040;-93
2021/12/29 08:53:50;;;;;;;26.15;16.40;;;;;;;6.56;100.00;100474.78;6221249;23;20028;-94
2021/12/29 08:56:45;;;;;;;24.30;15.23;;;;;;;6.60;100.00;100484.16;6217687;23;20426;-94
2021/12/29 08:59:32;;;;;;;26.25;16.48;;;;;;;6.64;100.00;100487.28;6201370;23;20011;-93
2021/12/29 09:02:12;;;;;;;25.90;15.45;;;;;;;6.58;100.00;100488.91;6221550;23;20008;-93
2021/12/29 09:04:53;;;;;;;25.05;16.05;;;;;;;6.61;100.00;100484.97;6222036;23;20008;-93
2021/12/29 09:07:24;;;;;;;24.70;15.93;;;;;;;6.64;100.00;100488.13;6221718;23;20004;-94
2021/12/29 09:09:54;;;;;;;21.83;15.23;;;;;;;6.90;100.00;100516.25;6196912;23;20004;-94
2021/12/29 09:12:30;;;;;;;24.65;16.58;;;;;;;7.19;100.00;100562.91;6221701;23;20061;-95
2021/12/29 09:14:58;;;;;;;23.38;14.95;;;;;;;6.67;100.00;100481.47;6196208;23;20447;-94
2021/12/29 09:17:37;;;;;;;21.70;16.05;;;;;;;7.04;100.00;100538.72;6221407;23;20032;-94
2021/12/29 09:20:23;;;;;;;22.60;15.10;;;;;;;6.77;100.00;100491.91;6222604;23;20004;-95
2021/12/29 09:23:13;;;;;;;20.90;14.52;;;;;;;6.81;100.00;100477.00;6221546;23;20004;-94
2021/12/29 09:25:52;;;;;;;22.25;14.93;;;;;;;7.13;100.00;100534.84;6221048;23;20011;-94
2021/12/29 09:28:20;;;;;;;21.42;14.60;;;;;;;7.19;100.00;100534.03;6220417;23;20493;-94
2021/12/29 09:30:50;;;;;;;22.55;14.73;;;;;;;6.86;100.00;100458.34;6196445;23;20024;-95
2021/12/29 09:33:22;;;;;;;22.42;15.43;;;;;;;6.95;100.00;100464.41;6221028;23;20012;-94
2021/12/29 09:36:01;;;;;;;21.58;14.50;;;;;;;7.04;100.00;100476.69;6221225;23;20004;-95
2021/12/29 09:38:45;;;;;;;20.38;14.05;;;;;;;7.39;100.00;100522.50;6220244;23;20007;-94
2021/12/29 09:41:32;;;;;;;21.98;13.93;;;;;;;7.10;100.00;100480.44;6222404;23;20000;-94
2021/12/29 09:44:30;;;;;;;21.63;13.10;;;;;;;7.63;100.00;100564.34;6197928;23;20008;-96
2021/12/29 09:47:11;;;;;;;21.95;12.85;;;;;;;7.62;100.00;100556.41;6223091;23;20019;-94
2021/12/29 09:49:47;;;;;;;17.90;12.63;;;;;;;7.10;100.00;100470.50;6218786;23;20103;-94
2021/12/29 09:52:30;;;;;;;20.60;12.48;;;;;;;7.14;100.00;100469.03;6211829;23;20106;-95
2021/12/29 09:55:17;;;;;;;;;;;;;;;7.68;100.00;100547.50;6198464;23;20526;-94
2021/12/29 09:58:04;;;;;;;20.25;11.77;;;;;;;7.12;100.00;100451.41;6247561;23;20341;-95
2021/12/29 10:03:57;;;;;;;18.10;11.67;;;;;;;7.14;100.00;100446.63;6247753;23;20011;-95
2021/12/29 10:06:57;;;;;;;;;;;;;;;;;;;;;
2021/12/29 10:09:40;;;;;;;17.83;10.43;;;;;;;7.33;100.00;100466.63;6247902;22;20060;-94
2021/12/29 10:13:14;;;;;;;17.83;10.10;;;;;;;7.90;100.00;100562.50;6234561;23;20028;-90
2021/12/29 10:16:31;;;;;;;;;;;;;;;;;;;;;
2021/12/29 10:22:58;;;;;;;18.13;8.88;;;;;;;7.88;100.00;100548.41;6247733;23;20008;-93
2021/12/29 10:26:22;;;;;;;;;;;;;;;;;;;;;
2021/12/29 10:32:43;;;;;;;15.45;8.60;;;;;;;7.94;100.00;100516.19;6069667;23;20021;-95
2021/12/29 11:11:09;;;;;;;13.27;6.60;;;;;;;8.05;100.00;100540.72;6126381;23;20014;-96
2021/12/29 11:13:59;;;;;;;;;;;;;;;;;;;;;
2021/12/29 11:16:27;;;;;;;17.20;6.20;;;;;;;7.75;100.00;100499.75;6100436;23;20449;-90
2021/12/29 11:18:53;;;;;;;16.65;6.53;;;;;;;7.55;100.00;100478.91;6127923;23;20010;-89
2021/12/29 11:21:31;;;;;;;13.35;5.82;;;;;;;7.57;100.00;100488.69;6192980;23;20070;-88
2021/12/29 11:24:12;;;;;;;13.70;5.75;;;;;;;7.66;100.00;100492.84;6217943;23;20008;-88
2021/12/29 11:26:38;;;;;;;18.50;5.95;;;;;;;7.20;100.00;100419.69;6217973;23;20000;-88
2021/12/29 11:29:09;;;;;;;19.77;6.32;;;;;;;7.17;100.00;100417.38;6244586;23;20000;-90
2021/12/29 11:31:40;;;;;;;16.27;6.70;;;;;;;7.48;100.00;100467.28;6218647;23;20009;-90
2021/12/29 11:34:41;;;;;;;20.23;6.72;;;;;;;7.65;100.00;100489.34;6220129;23;20042;-94
2021/12/29 11:37:13;;;;;;;19.05;7.05;;;;;;;7.10;100.00;100400.38;6219346;23;20012;-89
2021/12/29 11:42:34;;;;;;;20.13;7.32;;;;;;;7.09;100.00;100401.38;6218750;23;20015;-89
2021/12/29 11:45:03;;;;;;;19.10;7.82;;;;;;;7.46;100.00;100449.63;6216551;23;20035;-89
2021/12/29 11:47:34;;;;;;;19.25;7.70;;;;;;;7.06;100.00;100380.22;6218141;23;20446;-89
2021/12/29 11:50:03;;;;;;;23.27;8.32;;;;;;;7.07;100.00;100395.38;6218106;23;20078;-90
2021/12/29 11:52:32;;;;;;;25.33;8.15;;;;;;;7.72;100.00;100492.88;6220447;23;20016;-90
2021/12/29 11:58:18;;;;;;;25.35;9.77;;;;;;;7.66;100.00;100498.25;6204606;23;20000;-90
2021/12/29 12:01:12;;;;;;;22.23;8.90;;;;;;;7.66;100.00;100493.72;6218763;23;20004;-90
2021/12/29 12:03:46;;;;;;;19.92;8.43;;;;;;;7.12;100.00;100422.56;6217713;23;20011;-90
2021/12/29 12:06:40;;;;;;;24.75;9.75;;;;;;;7.53;100.00;100480.19;6219223;23;20011;-94
2021/12/29 12:09:45;;;;;;;21.27;9.95;;;;;;;7.11;100.00;100418.19;6218214;23;20004;-89
2021/12/29 12:12:12;;;;;;;22.52;9.45;;;;;;;7.23;100.00;100426.53;6227784;23;20011;-91
2021/12/29 12:14:49;;;;;;;21.98;8.90;;;;;;;7.18;100.00;100418.22;6244825;23;20014;-89
2021/12/29 12:17:20;;;;;;;18.80;9.32;;;;;;;7.23;100.00;100414.91;6219482;23;20008;-90
2021/12/29 12:19:59;;;;;;;25.50;8.95;;;;;;;7.36;100.00;100434.66;6220270;23;20008;-90
2021/12/29 12:22:27;;;;;;;21.17;8.52;;;;;;;7.37;100.00;100438.19;6221454;23;20008;-90
2021/12/29 12:25:05;;;;;;;25.30;9.10;;;;;;;6.95;100.00;100354.69;6194727;23;20012;-90
2021/12/29 12:27:37;;;;;;;21.83;8.77;;;;;;;6.95;100.00;100343.88;6218401;23;20012;-90
2021/12/29 12:30:11;;;;;;;23.85;9.52;;;;;;;7.61;100.00;100444.06;6217743;23;20375;-90
2021/12/29 12:32:50;;;;;;;25.58;8.48;;;;;;;6.99;100.00;100344.28;6218157;23;20069;-90
2021/12/29 12:35:40;;;;;;;25.38;8.95;;;;;;;7.59;100.00;100440.72;6218536;23;19996;-90
2021/12/29 12:38:24;;;;;;;22.02;8.07;;;;;;;7.56;100.00;100444.69;6244779;23;19996;-90
2021/12/29 12:41:26;;;;;;;20.25;7.35;;;;;;;7.58;100.00;100439.06;6218112;23;20008;-90
2021/12/29 12:44:07;;;;;;;22.42;7.57;;;;;;;7.34;100.00;100404.34;6217888;23;20036;-90
2021/12/29 12:46:41;;;;;;;24.58;7.90;;;;;;;7.52;100.00;100425.34;6218208;23;20000;-90
2021/12/29 12:49:38;;;;;;;21.40;7.88;;;;;;;7.29;100.00;100387.97;6218291;23;20004;-94
2021/12/29 12:52:45;;;;;;;21.23;7.45;;;;;;;7.10;100.00;100327.53;6219619;23;20020;-95
2021/12/29 12:55:24;;;;;;;21.27;8.05;;;;;;;6.96;100.00;100317.75;6217879;23;20320;-94
2021/12/29 13:01:28;;;;;;;;;;;;;;;;;;;;;
2021/12/29 13:05:05;;;;;;;;;;;;;;;;;;;;;
2021/12/29 13:07:27;;;;;;;21.75;8.02;;;;;;;7.63;100.00;100405.03;6232926;23;19915;-94
2021/12/29 13:10:00;;;;;;;23.60;8.10;;;;;;;7.10;100.00;100318.56;6221928;23;20386;-94
2021/12/29 13:16:11;;;;;;;23.42;8.48;;;;;;;7.35;100.00;100348.50;6222327;23;20015;-93
2021/12/29 13:19:51;;;;;;;;;;;;;;;;;;;;;
2021/12/29 13:21:46;;;;;;;20.55;8.43;;;;;;;7.50;100.00;100367.19;6204914;23;20074;-94
2021/12/29 13:24:19;;;;;;;23.90;8.95;;;;;;;7.06;100.00;100285.81;6222378;23;20070;-94
2021/12/29 13:26:48;;;;;;;21.10;9.27;;;;;;;7.10;100.00;100278.13;6197541;23;20339;-93
2021/12/29 13:29:26;;;;;;;18.65;8.27;;;;;;;7.71;100.00;100385.91;6221577;23;20008;-94
2021/12/29 13:32:20;;;;;;;24.38;8.60;;;;;;;7.71;100.00;100376.97;6221487;23;20004;-93
2021/12/29 13:35:06;;;;;;;21.60;8.82;;;;;;;7.08;100.00;100255.91;6221722;23;20377;-93
2021/12/29 13:37:41;;;;;;;20.52;8.30;;;;;;;7.53;100.00;100315.50;6195795;23;20012;-93
2021/12/29 13:40:12;;;;;;;20.33;8.63;;;;;;;7.04;100.00;100236.59;6221628;23;20065;-94
2021/12/29 13:42:45;;;;;;;19.80;8.35;;;;;;;7.14;100.00;100258.59;6196905;23;20351;-94
2021/12/29 13:45:34;;;;;;;20.65;7.93;;;;;;;7.49;100.00;100303.47;6219975;23;20008;-94
2021/12/29 13:48:17;;;;;;;20.90;8.15;;;;;;;7.55;100.00;100300.75;6198791;23;20042;-94
2021/12/29 13:51:20;;;;;;;20.17;8.38;;;;;;;7.20;100.00;100244.31;6222021;23;20447;-94
2021/12/29 13:57:08;;;;;;;21.27;7.43;;;;;;;7.38;100.00;100277.91;6248876;23;20339;-94
2021/12/29 13:59:44;;;;;;;22.05;8.85;;;;;;;7.58;100.00;100313.00;6200843;23;20434;-93
2021/12/29 14:02:35;;;;;;;20.05;7.97;;;;;;;7.12;100.00;100220.22;6224029;23;20003;-94
2021/12/29 14:05:13;;;;;;;20.05;8.38;;;;;;;7.77;100.00;100318.59;6193954;23;20340;-94
2021/12/29 14:08:02;;;;;;;21.02;8.80;;;;;;;7.77;100.00;100332.94;6196813;23;20427;-94
2021/12/29 14:10:48;;;;;;;;;;;;;;;;;;;;;
2021/12/29 14:13:34;;;;;;;21.48;8.93;;;;;;;7.79;100.00;100316.50;6246758;23;20060;-94
2021/12/29 14:16:27;;;;;;;21.95;8.70;;;;;;;7.07;100.00;100193.06;6221826;23;20008;-96
2021/12/29 14:19:05;;;;;;;19.73;8.55;;;;;;;7.03;100.00;100198.00;6221896;23;20004;-94
2021/12/29 14:21:42;;;;;;;18.30;7.93;;;;;;;7.18;100.00;100213.16;6220647;23;20004;-94
2021/12/29 14:31:18;;;;;;;19.10;8.23;;;;;;;7.85;100.00;100296.75;6221250;23;20043;-94
2021/12/29 14:38:06;;;;;;;23.03;7.63;;;;;;;7.49;100.00;100235.97;6243393;23;20012;-94
2021/12/29 14:41:06;;;;;;;22.48;7.90;;;;;;;7.36;100.00;100202.53;6202004;23;20347;-94
2021/12/29 14:44:21;;;;;;;23.63;8.65;;;;;;;7.89;100.00;100274.50;6170893;23;20084;-95
2021/12/29 14:57:34;;;;;;;;;;;;;;;;;;;;;
2021/12/29 15:12:38;;;;;;;17.80;9.00;;;;;;;7.49;100.00;100220.59;5940134;24;20509;-95
2021/12/29 21:39:49;;;;;;;49.38;17.77;;;;;;;10.40;100.00;100800.28;6244806;22;20036;-91
2021/12/29 21:42:15;;;;;;;48.42;17.88;;;;;;;10.00;100.00;100723.44;6197293;23;20091;-91
2021/12/29 21:44:42;;;;;;;53.00;16.50;;;;;;;10.13;100.00;100748.84;6222459;23;20011;-91
2021/12/29 21:47:18;;;;;;;46.55;16.00;;;;;;;10.01;100.00;100735.13;6196175;23;20012;-90
2021/12/29 21:49:47;;;;;;;37.28;13.38;;;;;;;9.90;100.00;100719.53;6222261;23;20431;-90
2021/12/29 21:52:12;;;;;;;41.10;14.27;;;;;;;9.89;100.00;100734.13;6221560;23;20016;-90
2021/12/29 21:54:38;;;;;;;41.00;13.73;;;;;;;10.06;100.00;100778.69;6221124;23;20112;-90
2021/12/29 21:57:24;;;;;;;42.95;13.23;;;;;;;9.77;100.00;100740.22;6221177;23;20039;-90